createdAt,value
2018-02-23T00:00:40.018Z,21.02
2018-02-23T00:01:42.537Z,20.99
2018-02-23T00:02:45.013Z,20.97
2018-02-23T00:03:47.483Z,20.94
2018-02-23T00:04:49.943Z,20.92
2018-02-23T00:05:52.418Z,20.89
2018-02-23T00:06:54.907Z,20.86
2018-02-23T00:07:57.393Z,20.83
2018-02-23T00:08:59.882Z,20.81
2018-02-23T00:10:02.353Z,20.78
2018-02-23T00:11:04.832Z,20.76
2018-02-23T00:12:07.347Z,20.73
2018-02-23T00:13:09.807Z,20.70
2018-02-23T00:14:12.275Z,20.67
2018-02-23T00:15:14.747Z,20.65
2018-02-23T00:16:17.243Z,20.63
2018-02-23T00:17:19.732Z,20.61
2018-02-23T00:18:22.213Z,20.60
2018-02-23T00:19:24.673Z,20.59
2018-02-23T00:20:27.173Z,20.58
2018-02-23T00:21:29.652Z,20.56
2018-02-23T00:22:39.838Z,20.54
2018-02-23T00:23:42.327Z,20.53
2018-02-23T00:24:44.824Z,20.52
2018-02-23T00:25:47.292Z,20.51
2018-02-23T00:26:49.773Z,20.49
2018-02-23T00:27:52.282Z,20.48
2018-02-23T00:28:54.773Z,20.47
2018-02-23T00:29:57.266Z,20.45
2018-02-23T00:30:59.752Z,20.44
2018-02-23T00:32:02.231Z,20.43
2018-02-23T00:33:04.719Z,20.41
2018-02-23T00:34:07.187Z,20.39
2018-02-23T00:35:09.646Z,20.38
2018-02-23T00:36:12.129Z,20.37
2018-02-23T00:37:14.602Z,20.36
2018-02-23T00:38:17.104Z,20.36
2018-02-23T00:39:19.567Z,20.35
2018-02-23T00:40:22.036Z,20.34
2018-02-23T00:41:24.503Z,20.33
2018-02-23T00:42:26.967Z,20.31
2018-02-23T00:43:29.460Z,20.30
2018-02-23T00:44:31.932Z,20.28
2018-02-23T00:45:34.403Z,20.27
2018-02-23T00:46:36.889Z,20.26
2018-02-23T00:47:39.353Z,20.24
2018-02-23T00:48:41.844Z,20.23
2018-02-23T00:49:44.312Z,20.21
2018-02-23T00:50:46.779Z,20.21
2018-02-23T00:51:49.277Z,20.19
2018-02-23T00:52:51.761Z,20.17
2018-02-23T00:53:54.255Z,20.16
2018-02-23T00:54:56.736Z,20.14
2018-02-23T00:55:59.209Z,20.13
2018-02-23T00:57:01.691Z,20.12
2018-02-23T00:58:04.159Z,20.10
2018-02-23T00:59:06.648Z,20.08
2018-02-23T01:00:09.133Z,20.07
2018-02-23T01:01:11.609Z,20.05
2018-02-23T01:02:14.075Z,20.04
2018-02-23T01:03:16.551Z,20.02
2018-02-23T01:04:19.035Z,20.02
2018-02-23T01:05:21.514Z,20.00
2018-02-23T01:06:24.007Z,19.98
2018-02-23T01:07:26.486Z,19.98
2018-02-23T01:08:28.951Z,19.96
2018-02-23T01:09:31.435Z,19.95
2018-02-23T01:10:33.903Z,19.93
2018-02-23T01:11:36.381Z,19.91
2018-02-23T01:12:38.866Z,19.89
2018-02-23T01:13:41.346Z,19.87
2018-02-23T01:14:43.852Z,19.86
2018-02-23T01:15:46.322Z,19.84
2018-02-23T01:16:48.805Z,19.83
2018-02-23T01:17:51.271Z,19.80
2018-02-23T01:18:53.739Z,19.79
2018-02-23T01:19:56.237Z,19.77
2018-02-23T01:20:58.718Z,19.74
2018-02-23T01:22:01.206Z,19.72
2018-02-23T01:23:03.678Z,19.71
2018-02-23T01:24:06.147Z,19.69
2018-02-23T01:25:08.649Z,19.68
2018-02-23T01:26:11.115Z,19.67
2018-02-23T01:27:13.597Z,19.65
2018-02-23T01:28:16.086Z,19.64
2018-02-23T01:29:18.569Z,19.63
2018-02-23T01:30:21.077Z,19.62
2018-02-23T01:31:23.536Z,19.60
2018-02-23T01:32:26.026Z,19.60
2018-02-23T01:33:28.510Z,19.58
2018-02-23T01:34:30.988Z,19.57
2018-02-23T01:35:33.495Z,19.56
2018-02-23T01:36:36.017Z,19.55
2018-02-23T01:37:38.490Z,19.53
2018-02-23T01:38:40.974Z,19.53
2018-02-23T01:39:43.462Z,19.52
2018-02-23T01:40:45.965Z,19.52
2018-02-23T01:41:48.441Z,19.50
2018-02-23T01:42:50.916Z,19.49
2018-02-23T01:43:53.388Z,19.49
2018-02-23T01:44:55.883Z,19.50
2018-02-23T01:45:58.388Z,19.49
2018-02-23T01:47:00.917Z,19.50
2018-02-23T01:48:03.402Z,19.50
2018-02-23T01:49:05.904Z,19.50
2018-02-23T01:50:08.368Z,19.49
2018-02-23T01:51:10.871Z,19.48
2018-02-23T01:52:13.352Z,19.48
2018-02-23T01:53:15.837Z,19.47
2018-02-23T01:54:18.321Z,19.45
2018-02-23T01:55:20.808Z,19.45
2018-02-23T01:56:23.311Z,19.43
2018-02-23T01:57:25.797Z,19.43
2018-02-23T01:58:28.285Z,19.42
2018-02-23T01:59:30.750Z,19.41
2018-02-23T02:00:33.215Z,19.40
2018-02-23T02:01:35.713Z,19.39
2018-02-23T02:02:38.187Z,19.38
2018-02-23T02:03:40.664Z,19.37
2018-02-23T02:04:43.299Z,19.37
2018-02-23T02:05:45.785Z,19.37
2018-02-23T02:06:48.271Z,19.36
2018-02-23T02:07:50.740Z,19.35
2018-02-23T02:08:53.324Z,19.33
2018-02-23T02:09:55.800Z,19.34
2018-02-23T02:10:58.265Z,19.32
2018-02-23T02:12:00.767Z,19.32
2018-02-23T02:13:03.253Z,19.31
2018-02-23T02:14:05.753Z,19.29
2018-02-23T02:15:08.227Z,19.29
2018-02-23T02:16:10.726Z,19.28
2018-02-23T02:17:13.225Z,19.27
2018-02-23T02:18:15.727Z,19.25
2018-02-23T02:19:18.229Z,19.24
2018-02-23T02:20:20.699Z,19.24
2018-02-23T02:21:23.180Z,19.23
2018-02-23T02:22:25.698Z,19.21
2018-02-23T02:23:28.166Z,19.20
2018-02-23T02:24:30.635Z,19.20
2018-02-23T02:25:33.104Z,19.19
2018-02-23T02:26:35.584Z,19.18
2018-02-23T02:27:38.072Z,19.17
2018-02-23T02:28:40.562Z,19.16
2018-02-23T02:29:43.050Z,19.15
2018-02-23T02:30:45.545Z,19.14
2018-02-23T02:31:48.012Z,19.13
2018-02-23T02:33:59.343Z,19.12
2018-02-23T02:35:01.808Z,19.13
2018-02-23T02:36:04.277Z,19.13
2018-02-23T02:37:06.771Z,19.13
2018-02-23T02:38:09.259Z,19.12
2018-02-23T02:39:11.831Z,19.10
2018-02-23T02:40:14.322Z,19.10
2018-02-23T02:41:16.791Z,19.10
2018-02-23T02:42:19.269Z,19.08
2018-02-23T02:43:21.764Z,19.07
2018-02-23T02:44:24.249Z,19.07
2018-02-23T02:45:26.728Z,19.06
2018-02-23T02:46:29.210Z,19.05
2018-02-23T02:47:31.693Z,19.05
2018-02-23T02:48:34.220Z,19.03
2018-02-23T02:49:36.686Z,19.02
2018-02-23T02:50:39.165Z,19.01
2018-02-23T02:51:41.646Z,19.01
2018-02-23T02:52:44.197Z,19.00
2018-02-23T02:53:46.648Z,19.00
2018-02-23T02:54:49.129Z,19.00
2018-02-23T02:55:51.625Z,18.99
2018-02-23T02:56:54.092Z,18.98
2018-02-23T02:57:56.559Z,18.97
2018-02-23T02:58:59.040Z,18.96
2018-02-23T03:00:01.536Z,18.94
2018-02-23T03:01:04.019Z,18.93
2018-02-23T03:02:06.493Z,18.91
2018-02-23T03:03:09.009Z,18.91
2018-02-23T03:04:11.475Z,18.90
2018-02-23T03:05:13.952Z,18.89
2018-02-23T03:06:16.419Z,18.88
2018-02-23T03:07:18.892Z,18.86
2018-02-23T03:08:21.393Z,18.85
2018-02-23T03:09:23.876Z,18.84
2018-02-23T03:10:26.348Z,18.83
2018-02-23T03:11:28.847Z,18.82
2018-02-23T03:12:31.325Z,18.81
2018-02-23T03:13:33.834Z,18.80
2018-02-23T03:14:36.322Z,18.78
2018-02-23T03:15:38.803Z,18.78
2018-02-23T03:16:41.266Z,18.78
2018-02-23T03:17:43.732Z,18.76
2018-02-23T03:18:46.233Z,18.76
2018-02-23T03:19:48.714Z,18.75
2018-02-23T03:20:51.205Z,18.75
2018-02-23T03:21:53.680Z,18.75
2018-02-23T03:22:56.164Z,18.75
2018-02-23T03:23:58.655Z,18.74
2018-02-23T03:25:01.162Z,18.74
2018-02-23T03:26:03.642Z,18.73
2018-02-23T03:27:06.124Z,18.73
2018-02-23T03:28:08.610Z,18.71
2018-02-23T03:29:11.094Z,18.71
2018-02-23T03:30:13.583Z,18.70
2018-02-23T03:31:16.074Z,18.69
2018-02-23T03:32:18.544Z,18.69
2018-02-23T03:33:21.029Z,18.68
2018-02-23T03:34:23.532Z,18.68
2018-02-23T03:35:26.013Z,18.67
2018-02-23T03:36:28.487Z,18.67
2018-02-23T03:37:30.968Z,18.66
2018-02-23T03:38:33.441Z,18.66
2018-02-23T03:39:35.940Z,18.65
2018-02-23T03:40:38.426Z,18.65
2018-02-23T03:41:40.910Z,18.65
2018-02-23T03:42:43.380Z,18.63
2018-02-23T03:43:45.869Z,18.63
2018-02-23T03:44:48.364Z,18.62
2018-02-23T03:45:50.836Z,18.61
2018-02-23T03:46:53.330Z,18.60
2018-02-23T03:47:55.825Z,18.59
2018-02-23T03:48:58.308Z,18.58
2018-02-23T03:50:00.787Z,18.58
2018-02-23T03:51:03.269Z,18.57
2018-02-23T03:52:05.752Z,18.57
2018-02-23T03:53:08.249Z,18.56
2018-02-23T03:54:10.888Z,18.56
2018-02-23T03:55:13.380Z,18.55
2018-02-23T03:56:15.961Z,18.55
2018-02-23T03:57:18.445Z,18.55
2018-02-23T03:58:20.921Z,18.54
2018-02-23T03:59:23.402Z,18.54
2018-02-23T04:00:25.910Z,18.53
2018-02-23T04:01:28.375Z,18.53
2018-02-23T04:02:30.856Z,18.52
2018-02-23T04:03:33.339Z,18.52
2018-02-23T04:04:35.798Z,18.50
2018-02-23T04:05:38.297Z,18.50
2018-02-23T04:06:40.782Z,18.49
2018-02-23T04:07:43.286Z,18.48
2018-02-23T04:08:45.761Z,18.48
2018-02-23T04:09:48.230Z,18.47
2018-02-23T04:10:50.746Z,18.46
2018-02-23T04:11:53.223Z,18.46
2018-02-23T04:12:55.688Z,18.44
2018-02-23T04:13:58.274Z,18.44
2018-02-23T04:15:00.773Z,18.43
2018-02-23T04:16:03.256Z,18.42
2018-02-23T04:17:05.733Z,18.41
2018-02-23T04:18:08.239Z,18.41
2018-02-23T04:19:10.724Z,18.40
2018-02-23T04:20:13.217Z,18.39
2018-02-23T04:21:15.718Z,18.38
2018-02-23T04:22:18.186Z,18.38
2018-02-23T04:23:20.710Z,18.38
2018-02-23T04:24:23.163Z,18.37
2018-02-23T04:25:25.653Z,18.37
2018-02-23T04:26:28.161Z,18.36
2018-02-23T04:27:30.627Z,18.35
2018-02-23T04:28:33.142Z,18.34
2018-02-23T04:29:35.625Z,18.33
2018-02-23T04:30:38.129Z,18.32
2018-02-23T04:31:40.632Z,18.32
2018-02-23T04:32:43.107Z,18.31
2018-02-23T04:33:45.592Z,18.30
2018-02-23T04:34:48.073Z,18.30
2018-02-23T04:35:50.534Z,18.29
2018-02-23T04:36:53.066Z,18.29
2018-02-23T04:37:55.552Z,18.28
2018-02-23T04:38:58.051Z,18.27
2018-02-23T04:40:00.515Z,18.26
2018-02-23T04:41:02.998Z,18.26
2018-02-23T04:42:05.505Z,18.25
2018-02-23T04:43:07.971Z,18.24
2018-02-23T04:44:10.435Z,18.23
2018-02-23T04:45:12.906Z,18.22
2018-02-23T04:46:15.372Z,18.22
2018-02-23T04:47:17.873Z,18.21
2018-02-23T04:48:20.335Z,18.20
2018-02-23T04:49:22.830Z,18.20
2018-02-23T04:50:25.321Z,18.19
2018-02-23T04:51:27.788Z,18.18
2018-02-23T04:52:30.301Z,18.18
2018-02-23T04:53:32.781Z,18.17
2018-02-23T04:54:35.258Z,18.16
2018-02-23T04:55:37.747Z,18.17
2018-02-23T04:56:40.239Z,18.16
2018-02-23T04:57:42.757Z,18.15
2018-02-23T04:58:45.224Z,18.15
2018-02-23T04:59:47.721Z,18.14
2018-02-23T05:00:50.207Z,18.13
2018-02-23T05:01:52.676Z,18.13
2018-02-23T05:02:55.175Z,18.12
2018-02-23T05:03:57.643Z,18.12
2018-02-23T05:05:00.159Z,18.11
2018-02-23T05:06:02.645Z,18.10
2018-02-23T05:07:05.124Z,18.09
2018-02-23T05:08:07.618Z,18.09
2018-02-23T05:09:10.102Z,18.09
2018-02-23T05:10:12.597Z,18.07
2018-02-23T05:11:15.077Z,18.07
2018-02-23T05:12:17.551Z,18.06
2018-02-23T05:13:20.049Z,18.06
2018-02-23T05:14:22.537Z,18.03
2018-02-23T05:15:25.026Z,18.03
2018-02-23T05:16:27.521Z,18.02
2018-02-23T05:17:29.991Z,18.02
2018-02-23T05:18:32.498Z,18.01
2018-02-23T05:19:34.995Z,18.01
2018-02-23T05:20:37.465Z,18.00
2018-02-23T05:21:39.961Z,18.01
2018-02-23T05:22:42.465Z,18.01
2018-02-23T05:23:44.977Z,18.01
2018-02-23T05:24:47.473Z,18.01
2018-02-23T05:25:50.009Z,18.01
2018-02-23T05:26:52.505Z,18.01
2018-02-23T05:27:54.973Z,18.00
2018-02-23T05:28:57.464Z,18.00
2018-02-23T05:29:59.946Z,17.99
2018-02-23T05:31:02.449Z,17.98
2018-02-23T05:32:04.933Z,17.98
2018-02-23T05:33:07.421Z,17.98
2018-02-23T05:34:09.941Z,17.97
2018-02-23T05:35:12.430Z,17.96
2018-02-23T05:36:14.907Z,17.96
2018-02-23T05:37:17.442Z,17.95
2018-02-23T05:38:19.943Z,17.94
2018-02-23T05:39:22.455Z,17.93
2018-02-23T05:40:24.934Z,17.93
2018-02-23T05:41:27.425Z,17.92
2018-02-23T05:42:29.895Z,17.91
2018-02-23T05:43:32.363Z,17.91
2018-02-23T05:44:34.851Z,17.91
2018-02-23T05:45:37.330Z,17.90
2018-02-23T05:46:39.798Z,17.90
2018-02-23T05:47:42.278Z,17.90
2018-02-23T05:48:44.747Z,17.90
2018-02-23T05:49:47.232Z,17.88
2018-02-23T05:50:49.757Z,17.88
2018-02-23T05:51:52.240Z,17.88
2018-02-23T05:52:54.732Z,17.88
2018-02-23T05:53:57.230Z,17.88
2018-02-23T05:54:59.734Z,17.88
2018-02-23T05:56:02.225Z,17.87
2018-02-23T05:57:04.703Z,17.87
2018-02-23T05:58:07.202Z,17.88
2018-02-23T05:59:09.683Z,17.86
2018-02-23T06:00:12.196Z,17.85
2018-02-23T06:01:14.685Z,17.84
2018-02-23T06:02:17.175Z,17.82
2018-02-23T06:03:19.665Z,17.82
2018-02-23T06:04:22.161Z,17.81
2018-02-23T06:05:24.695Z,17.79
2018-02-23T06:06:27.168Z,17.78
2018-02-23T06:07:29.698Z,17.77
2018-02-23T06:08:32.205Z,17.76
2018-02-23T06:09:34.683Z,17.75
2018-02-23T06:10:37.168Z,17.74
2018-02-23T06:11:39.631Z,17.74
2018-02-23T06:12:42.186Z,17.72
2018-02-23T06:13:44.696Z,17.72
2018-02-23T06:14:47.167Z,17.70
2018-02-23T06:15:55.302Z,17.70
2018-02-23T06:16:57.799Z,17.70
2018-02-23T06:18:05.889Z,17.69
2018-02-23T06:19:08.368Z,17.69
2018-02-23T06:20:10.847Z,17.68
2018-02-23T06:21:13.356Z,17.68
2018-02-23T06:22:15.879Z,17.67
2018-02-23T06:23:18.342Z,17.66
2018-02-23T06:24:20.830Z,17.66
2018-02-23T06:25:23.321Z,17.66
2018-02-23T06:26:25.839Z,17.66
2018-02-23T06:27:28.333Z,17.66
2018-02-23T06:28:30.825Z,17.66
2018-02-23T06:29:33.330Z,17.65
2018-02-23T06:30:35.815Z,17.65
2018-02-23T06:31:38.324Z,17.64
2018-02-23T06:32:40.800Z,17.64
2018-02-23T06:33:43.294Z,17.63
2018-02-23T06:34:45.768Z,17.63
2018-02-23T06:35:48.346Z,17.63
2018-02-23T06:36:50.957Z,17.62
2018-02-23T06:37:53.438Z,17.62
2018-02-23T06:38:55.925Z,17.61
2018-02-23T06:39:58.417Z,17.61
2018-02-23T06:41:00.898Z,17.61
2018-02-23T06:42:03.415Z,17.61
2018-02-23T06:43:05.911Z,17.60
2018-02-23T06:44:08.405Z,17.60
2018-02-23T06:45:10.933Z,17.60
2018-02-23T06:46:13.421Z,17.59
2018-02-23T06:47:15.922Z,17.59
2018-02-23T06:48:18.411Z,17.59
2018-02-23T06:49:20.886Z,17.59
2018-02-23T06:50:23.366Z,17.59
2018-02-23T06:51:25.865Z,17.59
2018-02-23T06:52:28.378Z,17.58
2018-02-23T06:53:30.908Z,17.58
2018-02-23T06:54:33.391Z,17.57
2018-02-23T06:55:35.880Z,17.58
2018-02-23T06:56:38.382Z,17.57
2018-02-23T06:57:40.889Z,17.56
2018-02-23T06:58:43.368Z,17.56
2018-02-23T06:59:45.872Z,17.56
2018-02-23T07:00:48.373Z,17.56
2018-02-23T07:01:50.862Z,17.56
2018-02-23T07:02:53.399Z,17.56
2018-02-23T07:03:55.861Z,17.56
2018-02-23T07:04:58.336Z,17.56
2018-02-23T07:06:00.829Z,17.56
2018-02-23T07:07:03.322Z,17.55
2018-02-23T07:08:05.834Z,17.54
2018-02-23T07:09:08.329Z,17.57
2018-02-23T07:10:10.808Z,17.59
2018-02-23T07:11:13.416Z,17.61
2018-02-23T07:12:15.797Z,17.63
2018-02-23T07:13:18.307Z,17.62
2018-02-23T07:14:20.805Z,17.57
2018-02-23T07:15:23.309Z,17.53
2018-02-23T07:16:25.819Z,17.48
2018-02-23T07:17:28.292Z,17.41
2018-02-23T07:18:31.139Z,17.35
2018-02-23T07:19:33.631Z,17.29
2018-02-23T07:20:36.134Z,17.24
2018-02-23T07:21:38.647Z,17.19
2018-02-23T07:22:41.127Z,17.16
2018-02-23T07:23:43.637Z,17.13
2018-02-23T07:24:46.161Z,17.11
2018-02-23T07:25:48.669Z,17.09
2018-02-23T07:26:51.162Z,17.08
2018-02-23T07:27:53.670Z,17.07
2018-02-23T07:28:56.196Z,17.05
2018-02-23T07:29:58.691Z,17.02
2018-02-23T07:31:01.171Z,16.99
2018-02-23T07:32:03.668Z,16.97
2018-02-23T07:33:06.165Z,16.94
2018-02-23T07:34:08.664Z,16.93
2018-02-23T07:35:11.145Z,16.92
2018-02-23T07:36:13.637Z,16.92
2018-02-23T07:37:16.119Z,16.91
2018-02-23T07:38:18.730Z,16.91
2018-02-23T07:39:21.230Z,16.91
2018-02-23T07:40:23.726Z,16.89
2018-02-23T07:41:26.448Z,16.88
2018-02-23T07:42:28.982Z,16.88
2018-02-23T07:43:31.464Z,16.88
2018-02-23T07:44:34.014Z,16.88
2018-02-23T07:45:36.528Z,16.88
2018-02-23T07:46:39.004Z,16.87
2018-02-23T07:47:41.491Z,16.88
2018-02-23T07:48:43.981Z,16.88
2018-02-23T07:49:46.497Z,16.88
2018-02-23T07:50:48.972Z,16.87
2018-02-23T07:51:51.494Z,16.88
2018-02-23T07:52:53.972Z,16.87
2018-02-23T07:53:56.459Z,16.86
2018-02-23T07:54:58.948Z,16.85
2018-02-23T07:56:01.441Z,16.84
2018-02-23T07:57:03.930Z,16.84
2018-02-23T07:58:06.417Z,16.84
2018-02-23T07:59:08.922Z,16.83
2018-02-23T08:00:11.463Z,16.81
2018-02-23T08:01:13.961Z,16.81
2018-02-23T08:02:16.447Z,16.80
2018-02-23T08:03:18.942Z,16.79
2018-02-23T08:04:21.432Z,16.79
2018-02-23T08:05:24.066Z,16.78
2018-02-23T08:06:26.544Z,16.79
2018-02-23T08:07:29.018Z,16.80
2018-02-23T08:08:31.509Z,16.80
2018-02-23T08:09:34.010Z,16.80
2018-02-23T08:10:36.553Z,16.79
2018-02-23T08:11:39.032Z,16.80
2018-02-23T08:12:41.507Z,16.82
2018-02-23T08:13:43.992Z,16.85
2018-02-23T08:14:46.467Z,16.90
2018-02-23T08:15:48.967Z,16.93
2018-02-23T08:16:51.449Z,16.97
2018-02-23T08:17:53.931Z,17.00
2018-02-23T08:18:56.430Z,17.01
2018-02-23T08:19:58.912Z,17.00
2018-02-23T08:21:01.484Z,17.01
2018-02-23T08:22:03.977Z,16.97
2018-02-23T08:23:06.474Z,16.96
2018-02-23T08:24:08.951Z,16.95
2018-02-23T08:25:11.435Z,16.95
2018-02-23T08:26:13.936Z,16.93
2018-02-23T08:27:16.423Z,16.96
2018-02-23T08:28:18.900Z,17.00
2018-02-23T08:29:21.401Z,17.06
2018-02-23T08:30:23.893Z,17.18
2018-02-23T08:31:26.396Z,17.36
2018-02-23T08:32:28.870Z,17.53
2018-02-23T08:33:31.439Z,17.78
2018-02-23T08:34:33.924Z,17.97
2018-02-23T08:35:36.455Z,18.17
2018-02-23T08:36:38.972Z,18.42
2018-02-23T08:37:41.460Z,18.60
2018-02-23T08:38:43.950Z,18.72
2018-02-23T08:39:46.446Z,18.93
2018-02-23T08:40:48.955Z,19.03
2018-02-23T08:41:51.455Z,19.11
2018-02-23T08:42:53.943Z,19.16
2018-02-23T08:43:56.416Z,19.21
2018-02-23T08:44:58.882Z,19.25
2018-02-23T08:46:01.446Z,19.25
2018-02-23T08:47:03.948Z,19.31
2018-02-23T08:48:06.449Z,19.33
2018-02-23T08:49:08.950Z,19.43
2018-02-23T08:50:11.419Z,19.53
2018-02-23T08:51:13.899Z,19.62
2018-02-23T08:52:16.387Z,19.70
2018-02-23T08:53:18.854Z,19.82
2018-02-23T08:54:21.341Z,19.87
2018-02-23T08:55:23.826Z,19.91
2018-02-23T08:56:26.307Z,19.95
2018-02-23T08:57:28.795Z,20.00
2018-02-23T08:58:31.268Z,19.98
2018-02-23T08:59:33.760Z,19.98
2018-02-23T09:00:46.049Z,19.92
2018-02-23T09:01:48.519Z,19.89
2018-02-23T09:02:51.022Z,19.85
2018-02-23T09:03:53.499Z,19.84
2018-02-23T09:04:56.000Z,19.84
2018-02-23T09:05:58.477Z,19.85
2018-02-23T09:07:00.963Z,19.90
2018-02-23T09:08:03.546Z,19.97
2018-02-23T09:09:06.023Z,20.04
2018-02-23T09:10:08.505Z,20.12
2018-02-23T09:11:10.993Z,20.19
2018-02-23T09:12:13.480Z,20.27
2018-02-23T09:13:15.968Z,20.33
2018-02-23T09:14:18.453Z,20.34
2018-02-23T09:15:20.933Z,20.37
2018-02-23T09:16:23.423Z,20.37
2018-02-23T09:17:25.928Z,20.38
2018-02-23T09:18:28.464Z,20.38
2018-02-23T09:19:30.960Z,20.39
2018-02-23T09:20:33.485Z,20.36
2018-02-23T09:21:35.956Z,20.36
2018-02-23T09:22:38.449Z,20.38
2018-02-23T09:23:40.935Z,20.38
2018-02-23T09:24:43.408Z,20.43
2018-02-23T09:25:45.875Z,20.50
2018-02-23T09:26:48.352Z,20.60
2018-02-23T09:27:50.912Z,20.68
2018-02-23T09:28:53.422Z,20.74
2018-02-23T09:29:55.895Z,20.76
2018-02-23T09:30:58.377Z,20.78
2018-02-23T09:32:00.848Z,20.78
2018-02-23T09:33:03.489Z,20.80
2018-02-23T09:34:17.854Z,20.81
2018-02-23T09:35:20.331Z,20.77
2018-02-23T09:36:22.818Z,20.74
2018-02-23T09:37:25.296Z,20.71
2018-02-23T09:38:27.787Z,20.69
2018-02-23T09:39:30.264Z,20.68
2018-02-23T09:40:32.749Z,20.69
2018-02-23T09:41:35.245Z,20.74
2018-02-23T09:42:37.915Z,20.79
2018-02-23T09:43:40.595Z,20.87
2018-02-23T09:44:43.062Z,20.92
2018-02-23T09:45:45.527Z,20.96
2018-02-23T09:46:48.011Z,21.03
2018-02-23T09:47:50.489Z,21.05
2018-02-23T09:48:53.000Z,21.06
2018-02-23T09:49:55.493Z,21.06
2018-02-23T09:50:57.980Z,21.07
2018-02-23T09:52:00.553Z,21.07
2018-02-23T09:53:03.042Z,21.04
2018-02-23T09:54:05.536Z,21.02
2018-02-23T09:55:08.025Z,21.01
2018-02-23T09:56:10.495Z,21.00
2018-02-23T09:57:12.957Z,21.02
2018-02-23T09:58:15.445Z,21.02
2018-02-23T09:59:17.945Z,21.05
2018-02-23T10:00:20.434Z,21.10
2018-02-23T10:01:22.904Z,21.16
2018-02-23T10:02:25.385Z,21.20
2018-02-23T10:03:27.872Z,21.25
2018-02-23T10:04:30.373Z,21.28
2018-02-23T10:05:32.907Z,21.31
2018-02-23T10:06:35.380Z,21.32
2018-02-23T10:07:37.865Z,21.31
2018-02-23T10:08:40.340Z,21.29
2018-02-23T10:09:42.845Z,21.28
2018-02-23T10:10:45.344Z,21.25
2018-02-23T10:11:47.821Z,21.24
2018-02-23T10:12:50.292Z,21.22
2018-02-23T10:13:52.769Z,21.23
2018-02-23T10:14:55.255Z,21.27
2018-02-23T10:15:57.732Z,21.29
2018-02-23T10:17:00.203Z,21.35
2018-02-23T10:18:02.676Z,21.37
2018-02-23T10:19:05.228Z,21.43
2018-02-23T10:20:07.944Z,21.46
2018-02-23T10:21:10.424Z,21.49
2018-02-23T10:22:12.890Z,21.50
2018-02-23T10:23:15.372Z,21.53
2018-02-23T10:24:17.861Z,21.51
2018-02-23T10:25:20.355Z,21.49
2018-02-23T10:26:22.821Z,21.46
2018-02-23T10:27:25.329Z,21.48
2018-02-23T10:28:27.798Z,21.47
2018-02-23T10:29:30.285Z,21.42
2018-02-23T10:30:32.793Z,21.40
2018-02-23T10:31:35.278Z,21.45
2018-02-23T10:32:37.758Z,21.44
2018-02-23T10:33:40.233Z,21.48
2018-02-23T10:34:42.717Z,21.50
2018-02-23T10:35:45.199Z,21.56
2018-02-23T10:36:47.764Z,21.64
2018-02-23T10:37:50.227Z,21.66
2018-02-23T10:38:52.705Z,21.67
2018-02-23T10:39:55.194Z,21.68
2018-02-23T10:40:57.678Z,21.68
2018-02-23T10:42:00.196Z,21.68
2018-02-23T10:43:02.663Z,21.64
2018-02-23T10:44:05.155Z,21.60
2018-02-23T10:45:07.633Z,21.58
2018-02-23T10:46:10.127Z,21.57
2018-02-23T10:47:12.636Z,21.52
2018-02-23T10:48:15.118Z,21.50
2018-02-23T10:49:17.584Z,21.54
2018-02-23T10:50:20.047Z,21.52
2018-02-23T10:51:22.544Z,21.62
2018-02-23T10:52:25.033Z,21.67
2018-02-23T10:53:27.526Z,21.75
2018-02-23T10:54:29.998Z,21.77
2018-02-23T10:55:32.490Z,21.76
2018-02-23T10:56:34.991Z,21.76
2018-02-23T10:57:37.487Z,21.79
2018-02-23T10:58:39.961Z,21.78
2018-02-23T10:59:42.444Z,21.75
2018-02-23T11:00:44.915Z,21.74
2018-02-23T11:01:47.414Z,21.69
2018-02-23T11:02:49.897Z,21.66
2018-02-23T11:03:52.382Z,21.63
2018-02-23T11:04:54.859Z,21.61
2018-02-23T11:05:57.336Z,21.61
2018-02-23T11:06:59.877Z,21.62
2018-02-23T11:08:02.364Z,21.68
2018-02-23T11:09:04.862Z,21.75
2018-02-23T11:10:07.360Z,21.77
2018-02-23T11:11:09.856Z,21.81
2018-02-23T11:12:12.367Z,21.87
2018-02-23T11:13:14.868Z,21.87
2018-02-23T11:14:17.345Z,21.87
2018-02-23T11:15:19.803Z,21.89
2018-02-23T11:16:22.263Z,21.87
2018-02-23T11:17:24.747Z,21.84
2018-02-23T11:18:27.214Z,21.83
2018-02-23T11:19:29.731Z,21.80
2018-02-23T11:20:32.315Z,21.78
2018-02-23T11:21:34.797Z,21.77
2018-02-23T11:22:37.295Z,21.77
2018-02-23T11:23:39.782Z,21.77
2018-02-23T11:24:42.261Z,21.85
2018-02-23T11:25:44.741Z,21.89
2018-02-23T11:26:47.217Z,21.94
2018-02-23T11:27:49.701Z,22.02
2018-02-23T11:28:52.185Z,22.09
2018-02-23T11:29:54.655Z,22.09
2018-02-23T11:30:57.124Z,22.07
2018-02-23T11:31:59.617Z,22.05
2018-02-23T11:33:02.218Z,22.02
2018-02-23T11:34:04.688Z,22.02
2018-02-23T11:35:07.204Z,21.96
2018-02-23T11:36:09.679Z,21.94
2018-02-23T11:37:12.139Z,21.92
2018-02-23T11:38:14.641Z,21.89
2018-02-23T11:39:17.115Z,21.89
2018-02-23T11:40:19.597Z,21.91
2018-02-23T11:41:22.101Z,21.97
2018-02-23T11:42:24.585Z,21.99
2018-02-23T11:43:27.093Z,22.03
2018-02-23T11:44:29.584Z,22.13
2018-02-23T11:45:32.071Z,22.16
2018-02-23T11:46:34.549Z,22.16
2018-02-23T11:47:37.033Z,22.15
2018-02-23T11:48:39.601Z,22.15
2018-02-23T11:49:42.081Z,22.16
2018-02-23T11:50:44.569Z,22.12
2018-02-23T11:51:47.043Z,22.08
2018-02-23T11:52:49.525Z,22.04
2018-02-23T11:53:52.003Z,22.00
2018-02-23T11:54:54.464Z,22.01
2018-02-23T11:55:56.932Z,22.01
2018-02-23T11:56:59.419Z,22.02
2018-02-23T11:58:07.931Z,22.07
2018-02-23T11:59:10.436Z,22.13
2018-02-23T12:00:12.953Z,22.22
2018-02-23T12:01:15.429Z,22.25
2018-02-23T12:02:17.908Z,22.29
2018-02-23T12:03:20.394Z,22.32
2018-02-23T12:04:22.862Z,22.32
2018-02-23T12:05:25.341Z,22.34
2018-02-23T12:06:27.807Z,22.30
2018-02-23T12:07:30.271Z,22.26
2018-02-23T12:08:32.739Z,22.22
2018-02-23T12:09:35.202Z,22.21
2018-02-23T12:10:37.683Z,22.18
2018-02-23T12:11:40.178Z,22.12
2018-02-23T12:12:42.647Z,22.12
2018-02-23T12:13:45.115Z,22.15
2018-02-23T12:14:47.584Z,22.21
2018-02-23T12:15:50.067Z,22.27
2018-02-23T12:16:52.536Z,22.34
2018-02-23T12:17:55.002Z,22.36
2018-02-23T12:18:57.467Z,22.36
2018-02-23T12:19:59.971Z,22.40
2018-02-23T12:21:02.575Z,22.41
2018-02-23T12:22:05.071Z,22.40
2018-02-23T12:23:07.881Z,22.38
2018-02-23T12:24:10.402Z,22.33
2018-02-23T12:25:12.887Z,22.31
2018-02-23T12:26:15.368Z,22.28
2018-02-23T12:27:17.835Z,22.25
2018-02-23T12:28:20.335Z,22.24
2018-02-23T12:29:22.802Z,22.24
2018-02-23T12:30:25.354Z,22.31
2018-02-23T12:31:27.845Z,22.32
2018-02-23T12:32:30.316Z,22.37
2018-02-23T12:33:32.786Z,22.40
2018-02-23T12:34:35.251Z,22.46
2018-02-23T12:35:37.743Z,22.48
2018-02-23T12:36:40.224Z,22.47
2018-02-23T12:37:42.706Z,22.48
2018-02-23T12:38:45.193Z,22.48
2018-02-23T12:39:47.677Z,22.43
2018-02-23T12:40:50.169Z,22.42
2018-02-23T12:41:52.639Z,22.39
2018-02-23T12:42:55.117Z,22.34
2018-02-23T12:43:57.598Z,22.32
2018-02-23T12:45:00.072Z,22.31
2018-02-23T12:46:02.575Z,22.30
2018-02-23T12:47:05.066Z,22.34
2018-02-23T12:48:07.541Z,22.33
2018-02-23T12:49:10.009Z,22.40
2018-02-23T12:50:12.516Z,22.45
2018-02-23T12:51:15.034Z,22.50
2018-02-23T12:52:17.495Z,22.54
2018-02-23T12:53:19.977Z,22.55
2018-02-23T12:54:22.453Z,22.52
2018-02-23T12:55:24.923Z,22.49
2018-02-23T12:56:27.430Z,22.47
2018-02-23T12:57:29.900Z,22.44
2018-02-23T12:58:32.479Z,22.43
2018-02-23T12:59:34.943Z,22.41
2018-02-23T13:00:37.425Z,22.40
2018-02-23T13:01:39.906Z,22.38
2018-02-23T13:02:42.376Z,22.37
2018-02-23T13:03:44.865Z,22.36
2018-02-23T13:04:47.327Z,22.36
2018-02-23T13:05:49.805Z,22.42
2018-02-23T13:06:52.306Z,22.44
2018-02-23T13:07:54.793Z,22.49
2018-02-23T13:08:57.270Z,22.53
2018-02-23T13:09:59.735Z,22.54
2018-02-23T13:11:02.222Z,22.53
2018-02-23T13:12:04.706Z,22.52
2018-02-23T13:13:07.194Z,22.55
2018-02-23T13:14:09.663Z,22.51
2018-02-23T13:15:17.889Z,22.50
2018-02-23T13:16:26.028Z,22.44
2018-02-23T13:17:28.559Z,22.39
2018-02-23T13:18:31.609Z,22.33
2018-02-23T13:19:34.084Z,22.30
2018-02-23T13:20:36.573Z,22.29
2018-02-23T13:21:39.059Z,22.28
2018-02-23T13:22:41.555Z,22.29
2018-02-23T13:23:44.092Z,22.34
2018-02-23T13:24:46.579Z,22.43
2018-02-23T13:25:49.061Z,22.48
2018-02-23T13:26:51.529Z,22.56